createdAt,value
2022-08-22T00:00:44.274Z,15.60
2022-08-22T00:02:57.843Z,16.70
2022-08-22T00:03:09.033Z,17.20
2022-08-22T00:03:27.026Z,15.50
2022-08-22T00:06:09.308Z,15.40
2022-08-22T00:08:48.723Z,15.30
2022-08-22T00:11:29.387Z,15.30
2022-08-22T00:14:02.402Z,15.30
2022-08-22T00:16:39.733Z,15.40
2022-08-22T00:19:18.914Z,15.30
2022-08-22T00:21:53.581Z,15.10
2022-08-22T00:24:30.257Z,15.20
2022-08-22T00:27:05.634Z,15.10
2022-08-22T00:29:39.113Z,15.20
2022-08-22T00:32:13.030Z,15.10
2022-08-22T00:34:47.596Z,15.10
2022-08-22T00:37:21.573Z,14.90
2022-08-22T00:40:03.310Z,14.90
2022-08-22T00:43:01.109Z,14.90
2022-08-22T00:45:55.283Z,15.00
2022-08-22T00:48:52.641Z,15.00
2022-08-22T00:51:52.013Z,15.00
2022-08-22T00:54:30.347Z,14.90
2022-08-22T00:57:29.676Z,15.00
2022-08-22T01:00:15.305Z,15.00
2022-08-22T01:03:22.140Z,14.90
2022-08-22T01:06:02.212Z,14.80
2022-08-22T01:08:55.672Z,14.90
2022-08-22T01:11:50.811Z,14.90
2022-08-22T01:14:39.816Z,15.00
2022-08-22T01:17:40.230Z,15.00
2022-08-22T01:20:51.422Z,15.00
2022-08-22T01:23:51.156Z,14.80
2022-08-22T01:26:55.166Z,14.60
2022-08-22T01:30:10.221Z,14.60
2022-08-22T01:33:19.238Z,14.70
2022-08-22T01:36:19.887Z,14.70
2022-08-22T01:39:22.092Z,14.60
2022-08-22T01:42:23.788Z,14.50
2022-08-22T01:45:12.263Z,14.50
2022-08-22T01:47:47.714Z,14.30
2022-08-22T01:50:23.775Z,14.40
2022-08-22T01:53:00.458Z,14.40
2022-08-22T01:55:35.964Z,14.50
2022-08-22T01:58:14.592Z,14.40
2022-08-22T02:01:00.338Z,14.40
2022-08-22T02:06:08.233Z,14.20
2022-08-22T02:08:49.974Z,13.80
2022-08-22T02:11:37.550Z,13.80
2022-08-22T02:14:18.576Z,13.70
2022-08-22T02:16:53.903Z,13.80
2022-08-22T02:19:34.493Z,13.80
2022-08-22T02:22:08.520Z,13.90
2022-08-22T02:24:49.099Z,13.90
2022-08-22T02:27:32.363Z,13.70
2022-08-22T02:30:06.477Z,13.80
2022-08-22T02:32:50.594Z,13.80
2022-08-22T02:35:27.200Z,13.80
2022-08-22T02:38:22.507Z,13.80
2022-08-22T02:41:04.135Z,13.80
2022-08-22T02:43:40.154Z,13.80
2022-08-22T02:46:18.528Z,13.80
2022-08-22T02:48:53.672Z,13.70
2022-08-22T02:51:32.405Z,13.60
2022-08-22T02:54:14.245Z,13.70
2022-08-22T02:56:47.534Z,13.70
2022-08-22T02:59:34.185Z,13.80
2022-08-22T03:02:33.670Z,13.70
2022-08-22T03:05:16.669Z,13.70
2022-08-22T03:07:50.291Z,13.60
2022-08-22T03:10:24.736Z,13.60
2022-08-22T03:13:02.432Z,13.70
2022-08-22T03:15:48.438Z,13.70
2022-08-22T03:18:27.186Z,13.70
2022-08-22T03:21:01.111Z,13.50
2022-08-22T03:23:42.711Z,13.50
2022-08-22T03:26:18.524Z,13.50
2022-08-22T03:28:59.539Z,13.50
2022-08-22T03:31:32.191Z,13.40
2022-08-22T03:34:22.292Z,13.30
2022-08-22T03:37:04.126Z,13.40
2022-08-22T03:39:56.139Z,13.40
2022-08-22T03:43:10.671Z,13.50
2022-08-22T03:46:18.595Z,13.50
2022-08-22T03:49:38.054Z,13.30
2022-08-22T03:52:29.069Z,13.30
2022-08-22T03:55:18.567Z,13.40
2022-08-22T03:58:31.959Z,13.30
2022-08-22T04:01:48.015Z,13.30
2022-08-22T04:04:58.228Z,13.20
2022-08-22T04:08:00.643Z,13.10
2022-08-22T04:10:51.753Z,13.10
2022-08-22T04:13:56.443Z,13.10
2022-08-22T04:16:57.323Z,13.00
2022-08-22T04:19:54.212Z,13.10
2022-08-22T04:22:34.768Z,13.20
2022-08-22T04:25:10.401Z,13.00
2022-08-22T04:27:44.413Z,12.90
2022-08-22T04:30:22.332Z,12.90
2022-08-22T04:33:00.058Z,12.90
2022-08-22T04:35:34.235Z,13.00
2022-08-22T04:38:08.993Z,13.00
2022-08-22T04:40:45.050Z,13.00
2022-08-22T04:43:21.014Z,13.00
2022-08-22T04:45:56.207Z,13.10
2022-08-22T04:48:31.036Z,13.10
2022-08-22T04:51:04.357Z,13.20
2022-08-22T04:53:57.487Z,13.20
2022-08-22T04:56:36.981Z,13.20
2022-08-22T04:59:11.639Z,13.00
2022-08-22T05:01:54.796Z,13.20
2022-08-22T05:04:26.915Z,13.10
2022-08-22T05:07:05.717Z,12.90
2022-08-22T05:09:38.316Z,12.90
2022-08-22T05:12:12.210Z,13.10
2022-08-22T05:14:44.458Z,13.20
2022-08-22T05:19:50.723Z,13.20
2022-08-22T05:22:23.616Z,13.20
2022-08-22T05:24:58.034Z,13.30
2022-08-22T05:27:31.769Z,13.30
2022-08-22T05:30:05.544Z,13.40
2022-08-22T05:32:42.487Z,13.40
2022-08-22T05:35:11.782Z,13.60
2022-08-22T05:37:45.230Z,13.50
2022-08-22T05:40:21.287Z,13.70
2022-08-22T05:42:51.734Z,13.80
2022-08-22T05:45:20.716Z,14.00
2022-08-22T05:47:53.812Z,14.00
2022-08-22T05:50:30.576Z,14.00
2022-08-22T05:53:06.377Z,14.10
2022-08-22T05:55:46.796Z,14.30
2022-08-22T05:58:45.990Z,14.10
2022-08-22T06:01:23.874Z,13.90
2022-08-22T06:04:00.410Z,14.00
2022-08-22T06:06:31.239Z,14.00
2022-08-22T06:09:06.490Z,14.10
2022-08-22T06:11:41.810Z,14.10
2022-08-22T06:14:34.524Z,14.30
2022-08-22T06:17:07.659Z,14.50
2022-08-22T06:19:39.956Z,14.50
2022-08-22T06:22:08.757Z,14.60
2022-08-22T06:24:41.638Z,14.80
2022-08-22T06:27:14.271Z,14.90
2022-08-22T06:29:49.043Z,15.00
2022-08-22T06:32:34.160Z,15.00
2022-08-22T06:35:18.611Z,14.90
2022-08-22T06:37:48.892Z,14.90
2022-08-22T06:40:19.053Z,15.00
2022-08-22T06:42:51.338Z,15.10
2022-08-22T06:45:25.151Z,15.10
2022-08-22T06:48:00.615Z,15.30
2022-08-22T06:50:33.487Z,15.50
2022-08-22T06:53:08.057Z,15.80
2022-08-22T06:55:39.901Z,15.80
2022-08-22T06:58:16.800Z,16.00
2022-08-22T07:00:54.604Z,16.30
2022-08-22T07:03:39.817Z,16.30
2022-08-22T07:06:13.522Z,16.70
2022-08-22T07:08:42.298Z,17.90
2022-08-22T07:21:26.150Z,21.60
2022-08-22T07:23:56.673Z,24.90
2022-08-22T07:29:03.346Z,25.40
2022-08-22T07:31:39.012Z,24.80
2022-08-22T07:34:24.834Z,25.20
2022-08-22T07:36:59.963Z,25.60
2022-08-22T07:39:36.665Z,26.30
2022-08-22T07:42:13.953Z,26.90
2022-08-22T07:45:01.633Z,27.90
2022-08-22T07:47:48.016Z,28.60
2022-08-22T07:50:23.187Z,26.80
2022-08-22T07:52:53.659Z,27.20
2022-08-22T07:55:24.319Z,27.50
2022-08-22T07:57:57.025Z,26.90
2022-08-22T08:00:26.007Z,28.40
2022-08-22T08:02:59.124Z,28.50
2022-08-22T08:05:30.812Z,27.20
2022-08-22T08:08:08.477Z,29.00
2022-08-22T08:10:41.533Z,28.60
2022-08-22T08:13:19.394Z,28.40
2022-08-22T08:15:48.272Z,30.20
2022-08-22T08:18:22.033Z,29.40
2022-08-22T08:20:53.264Z,29.50
2022-08-22T08:23:23.570Z,30.10
2022-08-22T08:26:03.812Z,29.30
2022-08-22T08:28:34.278Z,30.40
2022-08-22T08:31:08.899Z,30.20
2022-08-22T08:33:44.925Z,29.30
2022-08-22T08:36:27.863Z,29.40
2022-08-22T08:39:01.259Z,29.40
2022-08-22T08:41:48.975Z,29.40
2022-08-22T08:44:30.815Z,29.70
2022-08-22T08:47:31.962Z,28.80
2022-08-22T08:50:25.514Z,28.30
2022-08-22T08:53:21.858Z,30.10
2022-08-22T08:55:58.685Z,30.10
2022-08-22T08:58:35.831Z,30.30
2022-08-22T09:01:33.098Z,30.50
2022-08-22T09:04:36.481Z,29.20
2022-08-22T09:07:49.351Z,30.00
2022-08-22T09:10:34.717Z,28.80
2022-08-22T09:13:25.339Z,28.90
2022-08-22T09:16:14.521Z,30.20
2022-08-22T09:19:03.107Z,30.50
2022-08-22T09:21:53.973Z,31.20
2022-08-22T09:25:07.271Z,31.00
2022-08-22T09:27:40.140Z,30.70
2022-08-22T09:30:12.374Z,31.40
2022-08-22T09:32:55.929Z,32.30
2022-08-22T09:35:32.367Z,31.20
2022-08-22T09:38:26.736Z,30.10
2022-08-22T09:41:02.853Z,30.30
2022-08-22T09:43:44.711Z,28.20
2022-08-22T09:46:31.452Z,26.60
2022-08-22T09:51:40.780Z,25.90
2022-08-22T09:54:35.975Z,25.50
2022-08-22T09:57:33.054Z,25.00
2022-08-22T10:00:22.464Z,25.60
2022-08-22T10:03:02.273Z,25.40
2022-08-22T10:05:43.957Z,25.40
2022-08-22T10:08:31.933Z,25.20
2022-08-22T10:11:26.654Z,25.30
2022-08-22T10:14:02.401Z,25.10
2022-08-22T10:16:58.841Z,25.10
2022-08-22T10:19:33.936Z,25.70
2022-08-22T10:22:30.010Z,25.40
2022-08-22T10:25:41.812Z,25.40
2022-08-22T10:28:17.750Z,25.40
2022-08-22T10:31:06.936Z,25.30
2022-08-22T10:33:44.398Z,25.30
2022-08-22T10:36:17.767Z,25.20
2022-08-22T10:38:49.541Z,25.40
2022-08-22T10:41:30.571Z,25.70
2022-08-22T10:44:05.764Z,25.10
2022-08-22T10:46:43.520Z,25.60
2022-08-22T10:49:22.581Z,26.10
2022-08-22T10:52:13.655Z,25.80
2022-08-22T10:54:51.486Z,26.10
2022-08-22T10:57:49.420Z,26.10
2022-08-22T11:00:35.347Z,26.20
2022-08-22T11:03:21.346Z,26.20
2022-08-22T11:05:55.886Z,26.50
2022-08-22T11:08:54.436Z,26.00
2022-08-22T11:11:41.428Z,26.30
2022-08-22T11:14:29.210Z,26.90
2022-08-22T11:17:23.558Z,26.80
2022-08-22T11:20:19.607Z,27.10
2022-08-22T11:23:08.226Z,27.20
2022-08-22T11:25:52.446Z,26.30
2022-08-22T11:29:02.896Z,26.40
2022-08-22T11:31:51.938Z,26.80
2022-08-22T11:34:36.874Z,27.10
2022-08-22T11:37:11.128Z,26.90
2022-08-22T11:39:48.310Z,26.60
2022-08-22T11:42:22.238Z,27.00
2022-08-22T11:44:56.544Z,26.20
2022-08-22T11:47:30.431Z,25.80
2022-08-22T11:50:04.111Z,26.40
2022-08-22T11:52:55.776Z,26.60
2022-08-22T11:55:34.511Z,26.70
2022-08-22T11:58:23.354Z,25.70
2022-08-22T12:01:02.713Z,26.10
2022-08-22T12:04:04.067Z,26.20
2022-08-22T12:07:12.133Z,26.00
2022-08-22T12:09:51.656Z,25.70
2022-08-22T12:12:43.050Z,25.90
2022-08-22T12:15:21.326Z,26.50
2022-08-22T12:18:29.526Z,26.80
2022-08-22T12:21:22.678Z,26.70
2022-08-22T12:24:25.029Z,25.90
2022-08-22T12:27:13.304Z,26.50
2022-08-22T12:30:02.989Z,26.90
2022-08-22T12:33:03.211Z,27.00
2022-08-22T12:35:41.216Z,26.90
2022-08-22T12:38:29.287Z,27.00
2022-08-22T12:41:27.871Z,27.40
2022-08-22T12:44:06.307Z,26.90
2022-08-22T12:46:47.392Z,27.30
2022-08-22T12:49:36.671Z,26.30
2022-08-22T12:52:22.798Z,26.70
2022-08-22T12:55:19.787Z,26.60
2022-08-22T12:58:00.959Z,27.10
2022-08-22T13:00:34.695Z,27.00
2022-08-22T13:03:10.428Z,26.40
2022-08-22T13:05:42.113Z,27.10
2022-08-22T13:08:17.519Z,26.90
2022-08-22T13:10:49.011Z,26.60
2022-08-22T13:13:31.624Z,26.70
2022-08-22T13:16:08.862Z,26.50
2022-08-22T13:18:53.895Z,26.20
2022-08-22T13:21:31.396Z,26.20
2022-08-22T13:24:10.599Z,26.50
2022-08-22T13:26:48.986Z,26.70
2022-08-22T13:29:39.591Z,26.80
2022-08-22T13:32:20.202Z,26.70
2022-08-22T13:34:57.390Z,26.60
2022-08-22T13:37:31.350Z,26.40
2022-08-22T13:40:03.737Z,26.60
2022-08-22T13:42:39.956Z,26.60
2022-08-22T13:45:17.422Z,26.40
2022-08-22T13:47:53.023Z,26.30
2022-08-22T13:50:25.295Z,26.30
2022-08-22T13:53:01.521Z,26.30
2022-08-22T13:55:36.916Z,26.70
2022-08-22T13:58:14.326Z,27.20
2022-08-22T14:01:31.276Z,26.80
2022-08-22T14:04:07.598Z,26.60
2022-08-22T14:07:17.818Z,27.20
2022-08-22T14:09:57.007Z,27.50
2022-08-22T14:12:28.680Z,27.30
2022-08-22T14:15:04.931Z,27.00
2022-08-22T14:17:42.459Z,27.50
2022-08-22T14:20:32.191Z,27.40
2022-08-22T14:23:11.718Z,27.50
2022-08-22T14:25:49.041Z,27.10
2022-08-22T14:28:27.421Z,27.70
2022-08-22T14:31:00.638Z,27.60
2022-08-22T14:33:35.030Z,27.40
2022-08-22T14:36:11.838Z,27.40
2022-08-22T14:38:49.979Z,27.50
2022-08-22T14:41:52.808Z,27.70
2022-08-22T14:44:23.397Z,27.90
2022-08-22T14:46:55.018Z,27.80
2022-08-22T14:49:39.426Z,27.40
2022-08-22T14:52:19.926Z,27.40
2022-08-22T14:54:50.955Z,27.50
2022-08-22T14:57:20.490Z,28.10
2022-08-22T14:59:52.789Z,28.10
2022-08-22T15:02:27.771Z,28.20
2022-08-22T15:04:57.320Z,28.10
2022-08-22T15:07:30.990Z,28.00
2022-08-22T15:10:07.813Z,28.00
2022-08-22T15:12:48.367Z,28.00
2022-08-22T15:15:30.764Z,27.90
2022-08-22T15:18:00.085Z,28.10
2022-08-22T15:20:35.219Z,28.30
2022-08-22T15:23:10.251Z,27.70
2022-08-22T15:25:47.104Z,27.70
2022-08-22T15:28:21.046Z,28.00
2022-08-22T15:31:03.541Z,27.70
2022-08-22T15:33:34.837Z,27.50
2022-08-22T15:36:15.683Z,27.10
2022-08-22T15:38:48.273Z,27.50
2022-08-22T15:41:38.574Z,27.50
2022-08-22T15:44:15.489Z,27.50
2022-08-22T15:47:10.951Z,27.30
2022-08-22T15:49:56.293Z,27.40
2022-08-22T15:52:28.770Z,27.40
2022-08-22T15:55:24.468Z,27.40
2022-08-22T15:58:06.217Z,27.10
2022-08-22T16:00:43.304Z,27.30
2022-08-22T16:03:15.929Z,27.20
2022-08-22T16:05:55.648Z,27.30
2022-08-22T16:08:32.677Z,27.30
2022-08-22T16:11:29.565Z,27.30
2022-08-22T16:14:47.445Z,26.90
2022-08-22T16:17:41.737Z,27.10
2022-08-22T16:20:53.332Z,26.80
2022-08-22T16:23:22.774Z,26.70
2022-08-22T16:26:10.578Z,26.60
2022-08-22T16:28:58.119Z,26.80
2022-08-22T16:31:32.158Z,26.70
2022-08-22T16:34:22.309Z,26.80
2022-08-22T16:36:52.608Z,26.50
2022-08-22T16:39:37.385Z,26.40
2022-08-22T16:42:35.615Z,26.30
2022-08-22T16:45:17.136Z,26.20
2022-08-22T16:47:56.386Z,26.20
2022-08-22T16:50:36.713Z,26.20
2022-08-22T16:53:11.757Z,26.20
2022-08-22T16:55:52.073Z,26.10
2022-08-22T16:59:22.359Z,26.10
2022-08-22T17:02:19.637Z,26.20
2022-08-22T17:05:04.300Z,26.10
2022-08-22T17:07:46.128Z,26.10
2022-08-22T17:10:28.602Z,26.00
2022-08-22T17:13:20.564Z,26.00
2022-08-22T17:16:06.080Z,26.00
2022-08-22T17:18:48.948Z,25.90
2022-08-22T17:21:26.075Z,25.90
2022-08-22T17:24:08.266Z,25.90
2022-08-22T17:26:55.673Z,25.80
2022-08-22T17:29:36.590Z,25.90
2022-08-22T17:32:13.567Z,25.80
2022-08-22T17:34:52.584Z,25.80
2022-08-22T17:37:27.411Z,25.70
2022-08-22T17:40:25.459Z,25.70
2022-08-22T17:43:19.351Z,25.60
2022-08-22T17:46:01.786Z,25.60
2022-08-22T17:48:35.816Z,25.60
2022-08-22T17:51:17.138Z,25.60
2022-08-22T17:53:51.523Z,25.50
2022-08-22T17:56:25.580Z,25.40
2022-08-22T17:59:02.973Z,25.40
2022-08-22T18:01:55.063Z,25.30
2022-08-22T18:04:46.852Z,25.20
2022-08-22T18:07:32.290Z,25.10
2022-08-22T18:10:14.702Z,25.10
2022-08-22T18:12:49.638Z,25.00
2022-08-22T18:20:28.757Z,24.90
2022-08-22T18:23:01.553Z,24.70
2022-08-22T18:25:46.563Z,24.60
2022-08-22T18:28:26.770Z,24.50
2022-08-22T18:30:59.916Z,24.40
2022-08-22T18:33:33.927Z,24.30
2022-08-22T18:36:10.763Z,24.20
2022-08-22T18:38:50.635Z,24.20
2022-08-22T18:41:31.371Z,24.10
2022-08-22T18:44:10.075Z,24.00
2022-08-22T18:46:46.358Z,24.00
2022-08-22T18:49:41.979Z,23.90
2022-08-22T18:58:02.496Z,23.80
2022-08-22T19:00:49.925Z,23.60
2022-08-22T19:03:36.184Z,23.50
2022-08-22T19:06:35.357Z,23.40
2022-08-22T19:09:52.400Z,23.40
2022-08-22T19:12:36.907Z,23.40
2022-08-22T19:15:23.595Z,23.40
2022-08-22T19:18:29.686Z,23.40
2022-08-22T19:21:42.169Z,23.30
2022-08-22T19:24:14.040Z,23.20
2022-08-22T19:26:45.134Z,23.10
2022-08-22T19:29:51.045Z,23.10
2022-08-22T19:33:02.269Z,23.00
2022-08-22T19:35:43.101Z,22.90
2022-08-22T19:38:12.619Z,22.80
2022-08-22T19:40:57.023Z,22.80
2022-08-22T19:43:38.596Z,22.70
2022-08-22T19:46:09.785Z,22.60
2022-08-22T19:48:50.433Z,22.60
2022-08-22T19:51:29.712Z,22.50
2022-08-22T19:54:18.540Z,22.50
2022-08-22T19:57:04.020Z,22.40
2022-08-22T19:59:51.157Z,22.40
2022-08-22T20:02:32.059Z,22.40
2022-08-22T20:05:24.050Z,22.40
2022-08-22T20:08:20.524Z,22.30
2022-08-22T20:11:05.671Z,22.30
2022-08-22T20:13:37.467Z,22.20
2022-08-22T20:16:16.326Z,22.20
2022-08-22T20:19:07.019Z,22.10
2022-08-22T20:21:44.752Z,22.10
2022-08-22T20:24:16.620Z,22.10
2022-08-22T20:27:12.330Z,22.00
2022-08-22T20:29:39.916Z,21.90
2022-08-22T20:32:08.927Z,21.90
2022-08-22T20:34:40.079Z,21.90
2022-08-22T20:37:29.357Z,21.80
2022-08-22T20:40:07.394Z,21.80
2022-08-22T20:43:00.209Z,21.70
2022-08-22T20:45:31.025Z,21.60
2022-08-22T20:47:59.375Z,21.50
2022-08-22T20:50:29.422Z,21.50
2022-08-22T20:53:16.435Z,21.50
2022-08-22T20:55:54.895Z,21.50
2022-08-22T20:58:26.245Z,21.40
2022-08-22T21:01:00.196Z,21.30
2022-08-22T21:13:59.308Z,21.40
2022-08-22T21:16:32.058Z,21.50
2022-08-22T21:19:02.046Z,21.40
2022-08-22T21:21:32.641Z,21.40
2022-08-22T21:24:04.027Z,21.40
2022-08-22T21:26:36.558Z,21.40
2022-08-22T21:34:06.151Z,21.30
2022-08-22T21:36:39.640Z,21.30
2022-08-22T21:39:17.084Z,21.20
2022-08-22T21:41:50.407Z,21.10
2022-08-22T21:44:33.179Z,21.10
2022-08-22T21:47:19.181Z,21.10
2022-08-22T21:50:10.920Z,21.00
2022-08-22T21:52:40.995Z,20.90
2022-08-22T21:55:27.876Z,20.90
2022-08-22T21:58:12.649Z,20.90
2022-08-22T22:00:51.379Z,20.80
2022-08-22T22:03:23.010Z,20.80
2022-08-22T22:05:54.833Z,20.80
2022-08-22T22:08:23.677Z,20.80
2022-08-22T22:11:01.683Z,20.70
2022-08-22T22:13:31.055Z,20.60
2022-08-22T22:15:59.431Z,20.60
2022-08-22T22:18:31.824Z,20.60
2022-08-22T22:21:00.735Z,20.60
2022-08-22T22:23:29.636Z,20.50
2022-08-22T22:26:02.694Z,20.50
2022-08-22T22:28:32.936Z,20.50
2022-08-22T22:31:01.416Z,20.50
2022-08-22T22:33:32.842Z,20.40
2022-08-22T22:36:06.920Z,20.40
2022-08-22T22:38:35.676Z,20.40
2022-08-22T22:41:05.537Z,20.30
2022-08-22T22:43:34.280Z,20.30
2022-08-22T22:46:03.026Z,20.30
2022-08-22T22:48:31.348Z,20.30
2022-08-22T22:50:59.602Z,20.30
2022-08-22T22:53:38.080Z,20.20
2022-08-22T22:56:11.637Z,20.20
2022-08-22T22:58:40.183Z,20.10
2022-08-22T23:01:09.977Z,20.00
2022-08-22T23:03:38.615Z,20.00
2022-08-22T23:06:12.572Z,20.10
2022-08-22T23:08:41.038Z,20.00
2022-08-22T23:11:13.920Z,20.00
2022-08-22T23:13:43.314Z,20.00
2022-08-22T23:16:17.062Z,20.00
2022-08-22T23:18:46.875Z,20.00
2022-08-22T23:21:18.999Z,20.00
2022-08-22T23:23:48.935Z,20.00
2022-08-22T23:26:18.971Z,19.90
2022-08-22T23:28:47.404Z,19.90
2022-08-22T23:31:18.676Z,19.90
2022-08-22T23:33:47.979Z,19.80
2022-08-22T23:36:20.209Z,19.80
2022-08-22T23:38:50.839Z,19.70
2022-08-22T23:41:21.639Z,19.50
2022-08-22T23:43:51.789Z,19.40
2022-08-22T23:46:22.601Z,19.40
2022-08-22T23:48:51.400Z,19.40
2022-08-22T23:51:22.894Z,19.40
2022-08-22T23:53:52.308Z,19.40
2022-08-22T23:56:28.436Z,19.30
2022-08-22T23:58:57.436Z,19.30
